Time;durP1;ratioP1;P1;durP2;ratioP2;P2;SDS_P1;SDS_P2;PMS_P1;PMS_P2;Temp;Humidity;BMP_temperature;BMP_pressure;BME280_temperature;BME280_humidity;BME280_pressure;Samples;Min_cycle;Max_cycle;Signal;HPM_P1;HPM_P2
2022/06/23 00:02:03;;;;;;;0.47;0.47;;;13.50;99.90;;;;;;5091608;28;20196;-68
2022/06/23 00:04:42;;;;;;;0.70;0.70;;;13.50;99.90;;;;;;5091467;28;20292;-67
2022/06/23 00:07:24;;;;;;;0.70;0.70;;;13.40;99.90;;;;;;5064898;28;20203;-67
2022/06/23 00:09:53;;;;;;;0.40;0.40;;;13.40;99.90;;;;;;5071335;28;20192;-67
2022/06/23 00:12:18;;;;;;;0.55;0.55;;;13.40;99.90;;;;;;5071220;28;20319;-67
2022/06/23 00:15:10;;;;;;;0.60;0.60;;;13.40;99.90;;;;;;5069915;28;20667;-68
2022/06/23 00:17:53;;;;;;;0.50;0.50;;;13.40;99.90;;;;;;5051218;28;20209;-67
2022/06/23 00:20:23;;;;;;;0.60;0.60;;;13.40;99.90;;;;;;5050958;28;20204;-67
2022/06/23 00:22:55;;;;;;;0.60;0.60;;;13.40;99.90;;;;;;5051145;28;20276;-67
2022/06/23 00:25:46;;;;;;;0.40;0.40;;;13.40;99.90;;;;;;5051031;28;20195;-66
2022/06/23 00:28:29;;;;;;;0.50;0.50;;;13.40;99.90;;;;;;5020396;28;20214;-67
2022/06/23 00:31:00;;;;;;;1.85;1.13;;;13.50;99.90;;;;;;5051199;28;20197;-67
2022/06/23 00:33:50;;;;;;;0.50;0.50;;;13.40;99.90;;;;;;5050934;28;20231;-67
2022/06/23 00:36:31;;;;;;;0.43;0.43;;;13.40;99.90;;;;;;5050954;28;20259;-67
2022/06/23 00:38:57;;;;;;;0.60;0.60;;;13.50;99.90;;;;;;5054968;28;20596;-67
2022/06/23 00:41:32;;;;;;;0.40;0.40;;;13.50;99.90;;;;;;5054809;28;20277;-66
2022/06/23 00:44:06;;;;;;;0.40;0.40;;;13.50;99.90;;;;;;5054687;28;20185;-67
2022/06/23 00:46:55;;;;;;;1.02;0.88;;;13.50;99.90;;;;;;5036898;28;20200;-67
2022/06/23 00:49:32;;;;;;;0.90;0.90;;;13.60;99.90;;;;;;5053841;28;20213;-67
2022/06/23 00:52:10;;;;;;;0.77;0.77;;;13.60;99.90;;;;;;5021801;28;20565;-67
2022/06/23 00:54:44;;;;;;;0.80;0.80;;;13.60;99.90;;;;;;5034499;28;20281;-67
2022/06/23 00:57:26;;;;;;;0.68;0.68;;;13.60;99.90;;;;;;5017040;28;20681;-67
2022/06/23 01:00:09;;;;;;;3.65;0.80;;;13.50;99.90;;;;;;5034742;28;20742;-67
2022/06/23 01:02:43;;;;;;;1.55;0.88;;;13.50;99.90;;;;;;5035310;28;20661;-67
2022/06/23 01:05:29;;;;;;;0.77;0.77;;;13.50;99.90;;;;;;5054350;28;20727;-67
2022/06/23 01:08:38;;;;;;;0.60;0.60;;;13.50;99.90;;;;;;5054415;28;20193;-66
2022/06/23 01:11:12;;;;;;;0.60;0.60;;;13.50;99.90;;;;;;5051478;28;20290;-67
2022/06/23 01:14:03;;;;;;;1.30;1.20;;;13.50;99.90;;;;;;5054261;28;20276;-66
2022/06/23 01:16:53;;;;;;;0.50;0.50;;;13.50;99.90;;;;;;5064000;28;20237;-67
2022/06/23 01:20:02;;;;;;;0.50;0.50;;;13.40;99.90;;;;;;5073779;28;20224;-66
2022/06/23 01:22:50;;;;;;;0.70;0.70;;;13.40;99.90;;;;;;5065700;28;20300;-66
2022/06/23 01:25:41;;;;;;;0.68;0.68;;;13.30;99.90;;;;;;5072985;28;20209;-68
2022/06/23 01:28:19;;;;;;;0.50;0.50;;;13.20;99.90;;;;;;5074221;28;20193;-68
2022/06/23 01:31:14;;;;;;;0.40;0.40;;;13.20;99.90;;;;;;5072818;28;20632;-68
2022/06/23 01:33:51;;;;;;;2.50;1.23;;;13.20;99.90;;;;;;5073970;28;20216;-68
2022/06/23 01:36:40;;;;;;;0.50;0.50;;;13.10;99.90;;;;;;5074146;28;20355;-68
2022/06/23 01:39:25;;;;;;;1.02;1.02;;;13.00;99.90;;;;;;5073892;28;20669;-68
2022/06/23 01:41:59;;;;;;;0.80;0.80;;;13.00;99.90;;;;;;5074653;28;20212;-68
2022/06/23 01:44:50;;;;;;;0.40;0.40;;;13.00;99.90;;;;;;5073744;28;20189;-68
2022/06/23 01:47:45;;;;;;;0.60;0.60;;;12.90;99.90;;;;;;5080755;28;20192;-68
2022/06/23 01:50:13;;;;;;;0.40;0.40;;;12.90;99.90;;;;;;5057675;28;20208;-68
2022/06/23 01:52:42;;;;;;;0.60;0.60;;;12.90;99.90;;;;;;5093862;28;20609;-68
2022/06/23 01:55:24;;;;;;;0.50;0.50;;;12.80;99.90;;;;;;5093869;28;20233;-68
2022/06/23 01:58:03;;;;;;;0.77;0.77;;;12.90;99.90;;;;;;5093790;28;20245;-68
2022/06/23 02:00:30;;;;;;;0.70;0.70;;;12.90;99.90;;;;;;5067332;28;20603;-69
2022/06/23 02:03:34;;;;;;;1.25;1.15;;;12.80;99.90;;;;;;5053364;28;20194;-68
2022/06/23 02:06:23;;;;;;;0.77;0.77;;;12.80;99.90;;;;;;5057373;28;20447;-69
2022/06/23 02:08:56;;;;;;;0.50;0.50;;;12.90;99.90;;;;;;5073719;28;20536;-68
2022/06/23 02:11:31;;;;;;;0.60;0.60;;;12.90;99.90;;;;;;5073199;28;20223;-68
2022/06/23 02:14:22;;;;;;;0.43;0.43;;;12.90;99.90;;;;;;5073347;28;20609;-68
2022/06/23 02:17:27;;;;;;;1.30;1.20;;;12.90;99.90;;;;;;5054998;28;20312;-68
2022/06/23 02:20:01;;;;;;;4.65;0.77;;;13.00;99.90;;;;;;5035249;28;20220;-68
2022/06/23 02:22:31;;;;;;;0.60;0.60;;;13.00;99.90;;;;;;5035056;28;20185;-68
2022/06/23 02:25:23;;;;;;;0.80;0.80;;;13.00;99.90;;;;;;5053353;28;20580;-68
2022/06/23 02:27:59;;;;;;;0.77;0.77;;;13.00;99.90;;;;;;5053081;28;20186;-68
2022/06/23 02:30:50;;;;;;;0.52;0.52;;;13.00;99.90;;;;;;5034968;28;20199;-68
2022/06/23 02:33:19;;;;;;;1.05;0.95;;;13.00;99.90;;;;;;5053472;28;20186;-68
2022/06/23 02:35:44;;;;;;;0.70;0.70;;;13.00;99.90;;;;;;5053040;28;20209;-67
2022/06/23 02:38:19;;;;;;;1.98;1.52;;;12.90;99.90;;;;;;5035788;28;20193;-67
2022/06/23 02:40:49;;;;;;;0.60;0.60;;;13.00;99.90;;;;;;5053472;28;20200;-68
2022/06/23 02:43:38;;;;;;;1.08;1.00;;;13.00;99.90;;;;;;5053015;28;20214;-69
2022/06/23 02:46:16;;;;;;;0.50;0.50;;;13.00;99.90;;;;;;5034271;28;20628;-68
2022/06/23 02:48:54;;;;;;;0.60;0.60;;;13.00;99.90;;;;;;5052598;28;20567;-68
2022/06/23 02:51:25;;;;;;;0.50;0.50;;;12.90;99.90;;;;;;5034738;28;20209;-68
2022/06/23 02:54:33;;;;;;;3.47;0.70;;;12.90;99.90;;;;;;5052625;28;20193;-69
2022/06/23 02:57:15;;;;;;;0.50;0.50;;;12.90;99.90;;;;;;5033363;28;20236;-68
2022/06/23 02:59:52;;;;;;;0.60;0.60;;;12.90;99.90;;;;;;5031642;28;20201;-68
2022/06/23 03:02:38;;;;;;;0.50;0.50;;;12.90;99.90;;;;;;5040334;28;20587;-70
2022/06/23 03:05:32;;;;;;;0.75;0.75;;;12.90;99.90;;;;;;5032533;28;20186;-69
2022/06/23 03:08:05;;;;;;;0.70;0.70;;;13.00;99.90;;;;;;5026858;28;20202;-68
2022/06/23 03:10:58;;;;;;;0.50;0.50;;;13.00;99.90;;;;;;5032212;28;20241;-69
2022/06/23 03:13:31;;;;;;;0.60;0.60;;;13.10;99.90;;;;;;5032086;28;20247;-66
2022/06/23 03:16:36;;;;;;;2.42;0.82;;;13.10;99.90;;;;;;5032210;28;20222;-67
2022/06/23 03:19:20;;;;;;;0.60;0.60;;;13.10;99.90;;;;;;4932674;29;20201;-67
2022/06/23 03:21:51;;;;;;;0.60;0.60;;;13.20;99.90;;;;;;4932597;29;20201;-67
2022/06/23 03:24:41;;;;;;;3.20;0.93;;;13.20;99.90;;;;;;4932484;29;20333;-68
2022/06/23 03:27:57;;;;;;;0.90;0.90;;;13.20;99.90;;;;;;4932632;29;20201;-67
2022/06/23 03:30:46;;;;;;;0.52;0.52;;;13.20;99.90;;;;;;4890844;29;20221;-67
2022/06/23 03:33:40;;;;;;;0.95;0.63;;;13.30;99.90;;;;;;4945700;29;20223;-68
2022/06/23 03:36:24;;;;;;;0.57;0.57;;;13.30;99.90;;;;;;4935172;29;20255;-70
2022/06/23 03:42:23;;;;;;;1.27;1.02;;;13.40;99.90;;;;;;4932297;29;20241;-67
2022/06/23 03:44:59;;;;;;;0.50;0.50;;;13.50;99.90;;;;;;4932119;29;20205;-67
2022/06/23 03:47:42;;;;;;;0.73;0.73;;;13.50;99.90;;;;;;4931927;29;20237;-67
2022/06/23 03:50:27;;;;;;;0.73;0.73;;;13.60;99.90;;;;;;4995880;28;20198;-67
2022/06/23 03:53:13;;;;;;;0.60;0.60;;;13.60;99.90;;;;;;5013830;28;20187;-67
2022/06/23 03:55:52;;;;;;;0.88;0.88;;;13.70;99.90;;;;;;5031270;28;20244;-68
2022/06/23 03:58:27;;;;;;;1.20;1.10;;;13.70;99.90;;;;;;5013680;28;20193;-68
2022/06/23 04:01:14;;;;;;;0.60;0.60;;;13.80;99.90;;;;;;5031490;28;20194;-67
2022/06/23 04:04:04;;;;;;;0.63;0.63;;;13.90;99.90;;;;;;5000559;28;20268;-67
2022/06/23 04:06:39;;;;;;;4.57;1.02;;;14.10;99.90;;;;;;5042387;28;20254;-67
2022/06/23 04:09:15;;;;;;;0.60;0.60;;;14.30;99.90;;;;;;5051328;28;20204;-67
2022/06/23 04:12:22;;;;;;;0.75;0.50;;;14.40;99.90;;;;;;5050998;28;20596;-67
2022/06/23 04:15:07;;;;;;;0.45;0.45;;;14.60;99.90;;;;;;4969848;28;20632;-67
2022/06/23 04:17:32;;;;;;;8.20;1.90;;;15.40;99.90;;;;;;4953742;28;20596;-67
2022/06/23 04:20:09;;;;;;;2.13;1.23;;;15.80;99.90;;;;;;4970210;28;20203;-67
2022/06/23 04:22:40;;;;;;;2.75;0.95;;;16.30;99.90;;;;;;4969755;28;20667;-68
2022/06/23 04:25:11;;;;;;;4.65;2.15;;;16.70;99.90;;;;;;4970214;28;20204;-66
2022/06/23 04:27:59;;;;;;;1.13;1.02;;;16.90;99.90;;;;;;4970006;28;20709;-67
2022/06/23 04:30:25;;;;;;;0.82;0.60;;;17.20;99.90;;;;;;4970012;28;20243;-67
2022/06/23 04:32:52;;;;;;;0.50;0.50;;;17.50;99.90;;;;;;4970142;28;20204;-68
2022/06/23 04:35:26;;;;;;;5.20;0.60;;;17.80;99.90;;;;;;4971134;28;20212;-67
2022/06/23 04:38:07;;;;;;;1.10;1.00;;;17.80;99.90;;;;;;4989677;28;20724;-67
2022/06/23 04:40:57;;;;;;;0.40;0.40;;;17.80;99.90;;;;;;4989312;28;20665;-69
2022/06/23 04:43:39;;;;;;;1.00;0.88;;;17.90;99.90;;;;;;4989267;28;20579;-68
2022/06/23 04:46:33;;;;;;;0.57;0.57;;;17.50;99.90;;;;;;4989612;28;20227;-68
2022/06/23 04:49:16;;;;;;;1.05;0.75;;;16.90;99.90;;;;;;4992704;28;20576;-68
2022/06/23 04:52:04;;;;;;;2.40;1.42;;;16.60;99.90;;;;;;5051516;28;20296;-68
2022/06/23 04:54:44;;;;;;;0.70;0.55;;;16.40;99.90;;;;;;5051031;28;20670;-68
2022/06/23 04:57:20;;;;;;;1.00;0.95;;;16.30;99.90;;;;;;5051070;28;20209;-68
2022/06/23 04:59:51;;;;;;;0.50;0.50;;;16.20;99.90;;;;;;5050979;28;20193;-66
2022/06/23 05:02:39;;;;;;;0.60;0.60;;;16.00;99.90;;;;;;5032910;28;20519;-67
2022/06/23 05:05:16;;;;;;;3.53;1.00;;;15.90;99.90;;;;;;5050811;28;20198;-67
2022/06/23 05:07:42;;;;;;;0.55;0.43;;;15.90;99.90;;;;;;5030714;28;20596;-68
2022/06/23 05:10:17;;;;;;;0.60;0.60;;;15.80;99.90;;;;;;5031398;28;20476;-66
2022/06/23 05:12:47;;;;;;;0.95;0.68;;;15.70;99.90;;;;;;5013132;28;20240;-67
2022/06/23 05:15:25;;;;;;;3.22;1.15;;;15.70;99.90;;;;;;5019561;28;20637;-66
2022/06/23 05:18:00;;;;;;;2.30;1.10;;;15.70;99.90;;;;;;5051111;28;20193;-68
2022/06/23 05:20:41;;;;;;;0.60;0.60;;;15.60;99.90;;;;;;5050572;28;20189;-69
2022/06/23 05:23:17;;;;;;;0.50;0.50;;;15.60;99.90;;;;;;5051983;28;20598;-68
2022/06/23 05:25:46;;;;;;;0.65;0.65;;;15.60;99.90;;;;;;5069254;28;20568;-68
2022/06/23 05:28:28;;;;;;;3.25;1.38;;;15.60;99.90;;;;;;5074308;28;20250;-68
2022/06/23 05:30:59;;;;;;;1.02;1.00;;;15.80;99.90;;;;;;5073108;28;20193;-68
2022/06/23 05:33:32;;;;;;;0.55;0.55;;;16.00;99.90;;;;;;5072613;28;20583;-69
2022/06/23 05:36:05;;;;;;;12.10;0.88;;;16.20;99.90;;;;;;5074110;28;20217;-67
2022/06/23 05:38:51;;;;;;;0.75;0.75;;;16.30;99.90;;;;;;5073935;28;20186;-68
2022/06/23 05:41:36;;;;;;;0.70;0.70;;;16.50;99.90;;;;;;5071895;28;20197;-68
2022/06/23 05:44:20;;;;;;;1.02;0.68;;;16.80;99.90;;;;;;5070269;28;20258;-68
2022/06/23 05:46:48;;;;;;;0.77;0.55;;;17.20;99.90;;;;;;5053170;28;20613;-68
2022/06/23 05:49:19;;;;;;;1.48;0.50;;;17.60;99.90;;;;;;5054005;28;20247;-68
2022/06/23 05:51:49;;;;;;;1.40;0.82;;;18.00;99.90;;;;;;5054465;28;20591;-66
2022/06/23 05:54:22;;;;;;;0.40;0.40;;;18.30;99.90;;;;;;5053995;28;20196;-67
2022/06/23 05:57:00;;;;;;;2.05;0.85;;;18.50;99.90;;;;;;5053542;28;20216;-67
2022/06/23 05:59:38;;;;;;;0.43;0.43;;;18.70;99.90;;;;;;5052172;28;20320;-66
2022/06/23 06:02:16;;;;;;;1.20;0.93;;;18.80;99.90;;;;;;5052289;28;20216;-66
2022/06/23 06:04:48;;;;;;;2.85;1.40;;;18.80;99.90;;;;;;5053469;28;20288;-67
2022/06/23 06:07:17;;;;;;;0.40;0.40;;;18.70;99.90;;;;;;5071027;28;20575;-68
2022/06/23 06:09:43;;;;;;;1.45;0.90;;;18.80;99.90;;;;;;5073583;28;20621;-67
2022/06/23 06:12:16;;;;;;;4.15;0.68;;;18.70;99.90;;;;;;5073525;28;20192;-67
2022/06/23 06:14:53;;;;;;;0.63;0.63;;;18.70;99.90;;;;;;5072572;28;20310;-67
2022/06/23 06:17:23;;;;;;;1.75;1.23;;;18.70;99.90;;;;;;5035303;28;20683;-67
2022/06/23 06:19:50;;;;;;;1.55;0.82;;;18.50;99.90;;;;;;5035372;28;20672;-67
2022/06/23 06:22:41;;;;;;;1.33;1.00;;;18.50;99.90;;;;;;5035247;28;20201;-67
2022/06/23 06:25:34;;;;;;;1.38;1.00;;;18.30;99.90;;;;;;5035291;28;20569;-67
2022/06/23 06:28:35;;;;;;;0.40;0.40;;;18.30;99.90;;;;;;5035695;28;20277;-66
2022/06/23 06:31:31;;;;;;;2.63;1.13;;;18.30;99.90;;;;;;5033166;28;20205;-67
2022/06/23 06:34:07;;;;;;;0.55;0.55;;;18.50;99.90;;;;;;5053068;28;20197;-68
2022/06/23 06:36:45;;;;;;;0.30;0.30;;;18.50;99.90;;;;;;5034907;28;20574;-68
2022/06/23 06:39:18;;;;;;;1.25;0.73;;;18.50;99.90;;;;;;5053120;28;20194;-68
2022/06/23 06:41:47;;;;;;;0.60;0.60;;;18.50;99.90;;;;;;5038718;28;20190;-68
2022/06/23 06:44:17;;;;;;;0.28;0.28;;;18.90;99.90;;;;;;5015740;28;20692;-67
2022/06/23 06:46:44;;;;;;;0.45;0.45;;;19.30;99.90;;;;;;5015795;28;20221;-67
2022/06/23 06:49:25;;;;;;;0.77;0.77;;;19.50;99.90;;;;;;5033602;28;20230;-69
2022/06/23 06:51:54;;;;;;;8.25;0.98;;;19.60;99.90;;;;;;5015799;28;20550;-67
2022/06/23 06:54:48;;;;;;;0.47;0.47;;;19.60;99.90;;;;;;5015335;28;20194;-67
2022/06/23 06:57:44;;;;;;;0.35;0.35;;;19.60;99.90;;;;;;5015179;28;20229;-68
2022/06/23 07:00:32;;;;;;;0.40;0.40;;;19.80;99.90;;;;;;5021935;28;20735;-68
2022/06/23 07:03:03;;;;;;;0.30;0.30;;;19.90;99.90;;;;;;5014950;28;20194;-68
2022/06/23 07:05:32;;;;;;;0.90;0.55;;;20.10;99.90;;;;;;5035267;28;20197;-68
2022/06/23 07:08:39;;;;;;;0.40;0.40;;;20.30;99.90;;;;;;5034952;28;20269;-69
2022/06/23 07:11:17;;;;;;;0.57;0.57;;;20.50;99.90;;;;;;5052100;28;20209;-68
2022/06/23 07:13:56;;;;;;;0.90;0.75;;;20.70;99.90;;;;;;5052937;28;20189;-67
2022/06/23 07:16:41;;;;;;;0.20;0.20;;;20.70;99.90;;;;;;5052354;28;20632;-68
2022/06/23 07:19:12;;;;;;;0.30;0.30;;;20.70;99.90;;;;;;5033233;28;20260;-69
2022/06/23 07:22:16;;;;;;;0.90;0.85;;;21.00;99.90;;;;;;5015199;28;20665;-70
2022/06/23 07:24:59;;;;;;;1.17;0.65;;;21.30;99.90;;;;;;4991778;28;20201;-68
2022/06/23 07:27:33;;;;;;;0.60;0.47;;;21.40;99.90;;;;;;5032449;28;20197;-68
2022/06/23 07:30:05;;;;;;;2.20;1.20;;;21.50;99.90;;;;;;5052455;28;20707;-69
2022/06/23 07:32:40;;;;;;;0.30;0.30;;;21.50;99.90;;;;;;5052124;28;20189;-68
2022/06/23 07:35:21;;;;;;;2.05;0.40;;;21.50;99.90;;;;;;5051982;28;20196;-67
2022/06/23 07:38:17;;;;;;;0.40;0.40;;;21.90;99.90;;;;;;5021727;28;20224;-68
2022/06/23 07:40:55;;;;;;;0.25;0.25;;;22.40;99.90;;;;;;5018763;28;20279;-68
2022/06/23 07:43:33;;;;;;;0.40;0.40;;;22.70;99.90;;;;;;5031656;28;20190;-68
2022/06/23 07:46:01;;;;;;;0.20;0.20;;;23.00;99.90;;;;;;5031549;28;20202;-67
2022/06/23 07:48:31;;;;;;;0.28;0.28;;;23.00;99.90;;;;;;5031723;28;20202;-67
2022/06/23 07:50:58;;;;;;;0.73;0.73;;;23.00;99.90;;;;;;5031610;28;20206;-68
2022/06/23 07:53:37;;;;;;;0.63;0.57;;;23.00;99.90;;;;;;5013831;28;20206;-68
2022/06/23 07:56:05;;;;;;;0.22;0.22;;;22.80;99.90;;;;;;5032103;28;20209;-69
2022/06/23 07:58:34;;;;;;;0.45;0.35;;;22.70;99.90;;;;;;5014050;28;20201;-68
2022/06/23 08:01:36;;;;;;;0.40;0.40;;;22.70;99.90;;;;;;5014755;28;20257;-67
2022/06/23 08:04:14;;;;;;;0.70;0.38;;;23.00;99.90;;;;;;5014320;28;20198;-68
2022/06/23 08:06:44;;;;;;;0.30;0.30;;;23.30;99.90;;;;;;5044051;28;20197;-70
2022/06/23 08:09:44;;;;;;;1.65;0.73;;;23.50;99.90;;;;;;5034375;28;20236;-68
2022/06/23 08:18:27;;;;;;;0.52;0.52;;;23.80;99.90;;;;;;5052244;28;20200;-68
2022/06/23 08:21:35;;;;;;;1.02;0.77;;;23.80;99.90;;;;;;5034222;28;20565;-69
2022/06/23 08:24:12;;;;;;;0.10;0.10;;;24.20;99.90;;;;;;5008595;28;20209;-68
2022/06/23 08:27:12;;;;;;;0.40;0.40;;;24.50;99.90;;;;;;5034628;28;20296;-69
2022/06/23 08:30:07;;;;;;;0.30;0.30;;;24.00;99.90;;;;;;4951741;28;20224;-69
2022/06/23 08:32:43;;;;;;;1.45;1.20;;;24.00;99.90;;;;;;4972520;28;20729;-69
2022/06/23 08:36:00;;;;;;;0.50;0.50;;;24.30;99.90;;;;;;5034982;28;20659;-70
2022/06/23 08:38:43;;;;;;;0.52;0.50;;;24.50;99.90;;;;;;5034585;28;20656;-69
2022/06/23 08:41:40;;;;;;;0.47;0.45;;;24.60;99.90;;;;;;5034743;28;20200;-69
2022/06/23 08:44:10;;;;;;;0.38;0.38;;;24.70;99.90;;;;;;5052033;28;20194;-68
2022/06/23 08:46:58;;;;;;;0.20;0.20;;;24.80;99.90;;;;;;5033802;28;20558;-69
2022/06/23 08:49:30;;;;;;;0.55;0.55;;;24.90;99.90;;;;;;5035846;28;20194;-69
2022/06/23 08:52:39;;;;;;;0.30;0.30;;;24.70;99.90;;;;;;5028962;28;20205;-68
2022/06/23 08:55:14;;;;;;;0.98;0.60;;;25.00;99.90;;;;;;5031824;28;20229;-69
2022/06/23 08:58:00;;;;;;;4.57;0.28;;;25.10;99.90;;;;;;5014928;28;20201;-70
2022/06/23 09:00:51;;;;;;;0.32;0.30;;;25.10;99.90;;;;;;5035418;28;20656;-70
2022/06/23 09:03:49;;;;;;;0.60;0.50;;;25.10;99.90;;;;;;5035428;28;20218;-68
2022/06/23 09:06:45;;;;;;;0.50;0.40;;;25.60;99.90;;;;;;5044369;28;20209;-68
2022/06/23 09:09:32;;;;;;;1.27;0.80;;;25.30;99.90;;;;;;5017021;28;20216;-69
2022/06/23 09:12:13;;;;;;;0.55;0.47;;;25.50;99.90;;;;;;5037045;28;20729;-68
2022/06/23 09:15:12;;;;;;;2.05;0.30;;;25.50;99.90;;;;;;5054742;28;20215;-69
2022/06/23 09:18:15;;;;;;;0.52;0.28;;;25.90;99.90;;;;;;5054919;28;20723;-69
2022/06/23 09:21:26;;;;;;;0.22;0.22;;;26.50;99.90;;;;;;5037096;28;20201;-70
2022/06/23 09:24:07;;;;;;;1.85;0.80;;;27.10;99.90;;;;;;5007264;28;20274;-68
2022/06/23 09:27:10;;;;;;;0.20;0.20;;;27.00;99.90;;;;;;5035199;28;20217;-69
2022/06/23 09:29:57;;;;;;;0.28;0.28;;;27.00;99.90;;;;;;5025631;28;20569;-69
2022/06/23 09:32:41;;;;;;;0.20;0.17;;;27.10;99.90;;;;;;5016775;28;20194;-70
2022/06/23 09:35:34;;;;;;;0.20;0.20;;;26.90;99.90;;;;;;5017012;28;20197;-69
2022/06/23 09:38:45;;;;;;;0.25;0.25;;;26.80;99.90;;;;;;5018075;28;20624;-69
2022/06/23 09:41:42;;;;;;;0.32;0.20;;;26.80;99.90;;;;;;5016871;28;20217;-69
2022/06/23 09:44:38;;;;;;;0.20;0.20;;;26.80;99.90;;;;;;5016981;28;20289;-70
2022/06/23 09:47:37;;;;;;;0.10;0.10;;;27.10;99.90;;;;;;5034443;28;20571;-69
2022/06/23 09:50:15;;;;;;;0.10;0.10;;;27.60;99.90;;;;;;5034375;28;20209;-69
2022/06/23 09:52:56;;;;;;;0.17;0.17;;;27.70;99.90;;;;;;5034298;28;20185;-69
2022/06/23 09:55:40;;;;;;;0.40;0.40;;;28.00;99.90;;;;;;5034060;28;20664;-69
2022/06/23 09:58:33;;;;;;;0.40;0.30;;;28.70;99.90;;;;;;5033954;28;20189;-69
2022/06/23 10:01:05;;;;;;;0.70;0.35;;;29.00;99.90;;;;;;5033818;28;20202;-69
2022/06/23 10:03:55;;;;;;;0.10;0.10;;;28.60;99.20;;;;;;5016083;28;20206;-69
2022/06/23 10:06:26;;;;;;;2.10;0.45;;;28.60;99.90;;;;;;5025083;28;20212;-69
2022/06/23 10:09:11;;;;;;;1.35;0.70;;;28.50;97.90;;;;;;5053690;28;20543;-68
2022/06/23 10:11:39;;;;;;;0.20;0.20;;;28.40;98.80;;;;;;5053727;28;20319;-69
2022/06/23 10:14:45;;;;;;;0.30;0.30;;;28.70;99.90;;;;;;5054276;28;20185;-69
2022/06/23 10:17:20;;;;;;;2.42;1.25;;;29.00;98.70;;;;;;5054092;28;20221;-69
2022/06/23 10:20:32;;;;;;;0.20;0.20;;;29.10;97.90;;;;;;5053898;28;20204;-69
2022/06/23 10:23:19;;;;;;;0.20;0.20;;;28.80;95.90;;;;;;5032617;28;20255;-69
2022/06/23 10:26:28;;;;;;;0.13;0.13;;;29.20;97.90;;;;;;5039573;28;20205;-70
2022/06/23 10:29:02;;;;;;;0.45;0.45;;;29.70;95.60;;;;;;5053325;28;20204;-69
2022/06/23 10:31:31;;;;;;;0.90;0.43;;;29.00;96.20;;;;;;5051775;28;20199;-70
2022/06/23 10:34:08;;;;;;;0.20;0.20;;;28.90;97.40;;;;;;5052224;28;20735;-70
2022/06/23 10:36:54;;;;;;;0.20;0.20;;;28.50;98.10;;;;;;5053433;28;20203;-70
2022/06/23 10:39:26;;;;;;;0.10;0.10;;;29.00;97.90;;;;;;5053308;28;20221;-71
2022/06/23 10:42:10;;;;;;;2.40;0.30;;;29.10;97.30;;;;;;5053268;28;20716;-70
2022/06/23 10:45:00;;;;;;;0.43;0.43;;;29.10;97.00;;;;;;5051761;28;20690;-70
2022/06/23 10:47:45;;;;;;;0.35;0.28;;;28.90;97.80;;;;;;5051387;28;20251;-70
2022/06/23 10:50:29;;;;;;;0.52;0.45;;;28.70;95.60;;;;;;5053110;28;20250;-69
2022/06/23 10:53:05;;;;;;;0.65;0.38;;;28.60;95.80;;;;;;5053271;28;20224;-69
2022/06/23 10:55:40;;;;;;;1.00;0.30;;;29.00;96.60;;;;;;5051604;28;20204;-70
2022/06/23 10:58:24;;;;;;;0.20;0.20;;;29.10;95.40;;;;;;5051611;28;20192;-70
2022/06/23 11:01:18;;;;;;;0.28;0.28;;;29.40;97.10;;;;;;5052848;28;20302;-70
2022/06/23 11:03:52;;;;;;;0.25;0.25;;;29.70;95.00;;;;;;5052427;28;20673;-71
2022/06/23 11:06:20;;;;;;;0.10;0.10;;;29.60;94.40;;;;;;5052755;28;20197;-70
2022/06/23 11:08:57;;;;;;;0.10;0.10;;;29.40;96.20;;;;;;5052892;28;20648;-70
2022/06/23 11:11:37;;;;;;;0.20;0.20;;;29.60;95.10;;;;;;5053101;28;20185;-70
2022/06/23 11:14:20;;;;;;;0.20;0.20;;;29.90;94.30;;;;;;5053409;28;20746;-70
2022/06/23 11:17:06;;;;;;;0.20;0.20;;;30.30;92.60;;;;;;5071919;28;20225;-71
2022/06/23 11:19:47;;;;;;;3.92;0.45;;;30.00;92.90;;;;;;5090730;28;20203;-70
2022/06/23 11:22:26;;;;;;;0.40;0.38;;;30.50;94.30;;;;;;5084477;28;20192;-71
2022/06/23 11:25:13;;;;;;;0.20;0.20;;;30.90;94.90;;;;;;5072842;28;20180;-71
2022/06/23 11:27:55;;;;;;;0.10;0.10;;;31.20;91.90;;;;;;5072467;28;20211;-71
2022/06/23 11:30:32;;;;;;;0.17;0.17;;;30.70;91.30;;;;;;5072652;28;20666;-71
2022/06/23 11:33:39;;;;;;;0.55;0.45;;;30.90;94.10;;;;;;5071434;28;20207;-71
2022/06/23 11:36:26;;;;;;;0.40;0.40;;;31.50;92.70;;;;;;5072638;28;20651;-71
2022/06/23 11:39:11;;;;;;;0.10;0.10;;;31.70;90.40;;;;;;5072358;28;20705;-71
2022/06/23 11:42:17;;;;;;;0.35;0.28;;;31.60;89.10;;;;;;5059748;28;20245;-71
2022/06/23 11:45:17;;;;;;;0.75;0.28;;;31.00;84.40;;;;;;5052178;28;20180;-71
2022/06/23 11:47:55;;;;;;;0.50;0.38;;;31.00;92.10;;;;;;5050807;28;20671;-72
2022/06/23 11:51:00;;;;;;;0.40;0.28;;;31.30;87.00;;;;;;5051905;28;20203;-71
2022/06/23 11:53:54;;;;;;;1.75;0.40;;;31.70;87.80;;;;;;5020766;28;20767;-71
2022/06/23 11:56:28;;;;;;;1.23;0.45;;;31.50;83.20;;;;;;5052208;28;20768;-71
2022/06/23 11:59:17;;;;;;;0.05;0.05;;;31.60;85.00;;;;;;5062290;28;20662;-71
2022/06/23 12:01:43;;;;;;;0.17;0.17;;;32.00;86.90;;;;;;5072221;28;20674;-71
2022/06/23 12:04:43;;;;;;;0.10;0.10;;;32.20;82.40;;;;;;5072257;28;20240;-71
2022/06/23 12:07:49;;;;;;;0.10;0.10;;;31.70;80.90;;;;;;5072714;28;20662;-71
2022/06/23 12:10:20;;;;;;;0.00;0.00;;;31.20;79.80;;;;;;5071057;28;20192;-72
2022/06/23 12:12:49;;;;;;;0.20;0.20;;;31.40;82.60;;;;;;5072176;28;20619;-71
2022/06/23 12:15:21;;;;;;;0.55;0.55;;;31.40;82.10;;;;;;5091900;28;20253;-72
2022/06/23 12:18:02;;;;;;;0.40;0.32;;;31.20;80.00;;;;;;5088372;28;20603;-71
2022/06/23 12:20:49;;;;;;;0.85;0.40;;;30.80;82.10;;;;;;5072068;28;20241;-72
2022/06/23 12:23:37;;;;;;;0.35;0.35;;;31.10;80.80;;;;;;5072099;28;20188;-70
2022/06/23 12:26:25;;;;;;;0.10;0.10;;;31.70;82.10;;;;;;5070216;28;20220;-71
2022/06/23 12:29:00;;;;;;;0.30;0.17;;;31.90;78.20;;;;;;5070740;28;20283;-70
2022/06/23 12:31:32;;;;;;;0.22;0.22;;;32.20;77.50;;;;;;5071873;28;20275;-70
2022/06/23 12:34:28;;;;;;;0.52;0.45;;;32.10;77.70;;;;;;5074262;28;20219;-70
2022/06/23 12:36:59;;;;;;;0.30;0.30;;;31.60;81.70;;;;;;5076185;28;20200;-70
2022/06/23 12:39:36;;;;;;;1.25;0.63;;;31.40;77.50;;;;;;5075643;28;20215;-70
2022/06/23 12:42:12;;;;;;;0.77;0.15;;;31.60;79.00;;;;;;5076328;28;20200;-70
2022/06/23 12:45:13;;;;;;;0.13;0.13;;;31.50;78.00;;;;;;5075849;28;20246;-70
2022/06/23 12:47:56;;;;;;;0.25;0.25;;;31.20;80.70;;;;;;5042963;28;20239;-70
2022/06/23 12:50:33;;;;;;;0.50;0.50;;;31.20;81.10;;;;;;5075745;28;20199;-70
2022/06/23 12:53:30;;;;;;;0.47;0.22;;;30.40;76.30;;;;;;5075892;28;20651;-70
2022/06/23 12:56:32;;;;;;;1.00;0.47;;;29.50;81.30;;;;;;5075312;28;20192;-70
2022/06/23 12:59:07;;;;;;;0.50;0.50;;;28.90;80.40;;;;;;5075939;28;20192;-70
2022/06/23 13:01:40;;;;;;;0.50;0.50;;;28.20;83.50;;;;;;5075008;28;20188;-70
2022/06/23 13:04:17;;;;;;;0.30;0.30;;;28.40;85.90;;;;;;5074786;28;20207;-70
2022/06/23 13:06:59;;;;;;;0.03;0.03;;;29.50;86.40;;;;;;5075065;28;20249;-70
2022/06/23 13:09:47;;;;;;;0.80;0.45;;;30.90;84.10;;;;;;5069548;28;20208;-71
2022/06/23 13:12:53;;;;;;;0.20;0.20;;;31.40;78.00;;;;;;5034519;28;20204;-71
2022/06/23 13:15:38;;;;;;;0.30;0.30;;;31.70;81.60;;;;;;5061914;28;20714;-70
2022/06/23 13:18:17;;;;;;;0.13;0.13;;;32.30;79.60;;;;;;5054732;28;20757;-70
2022/06/23 13:20:52;;;;;;;0.85;0.63;;;32.60;78.20;;;;;;5054340;28;20668;-70
2022/06/23 13:23:25;;;;;;;0.10;0.10;;;32.80;79.00;;;;;;5036596;28;20377;-70
2022/06/23 13:25:56;;;;;;;0.30;0.30;;;32.90;77.50;;;;;;5036699;28;20220;-70
2022/06/23 13:28:35;;;;;;;2.05;0.68;;;32.50;81.10;;;;;;5036827;28;20663;-70
2022/06/23 13:31:14;;;;;;;0.38;0.30;;;32.10;85.80;;;;;;5054496;28;20739;-70
2022/06/23 13:33:49;;;;;;;0.40;0.20;;;31.70;84.40;;;;;;5036152;28;20193;-68
2022/06/23 13:36:26;;;;;;;0.43;0.30;;;31.80;87.50;;;;;;5054098;28;20670;-69
2022/06/23 13:39:23;;;;;;;1.88;0.55;;;31.50;87.70;;;;;;5054106;28;20303;-67
2022/06/23 13:42:04;;;;;;;0.30;0.30;;;31.30;86.80;;;;;;5054001;28;20285;-68
2022/06/23 13:44:30;;;;;;;0.20;0.20;;;30.50;87.40;;;;;;5035257;28;20208;-68
2022/06/23 13:47:21;;;;;;;0.55;0.20;;;29.70;90.10;;;;;;5054516;28;20205;-68
2022/06/23 13:49:50;;;;;;;0.35;0.35;;;29.90;90.30;;;;;;5008888;28;20266;-68
2022/06/23 13:52:18;;;;;;;0.40;0.30;;;29.50;90.80;;;;;;5054323;28;20227;-69
2022/06/23 13:55:05;;;;;;;1.45;0.65;;;30.00;90.50;;;;;;5054175;28;20185;-69
2022/06/23 13:57:30;;;;;;;0.25;0.22;;;29.90;91.10;;;;;;5036317;28;20208;-68
2022/06/23 14:00:13;;;;;;;0.17;0.13;;;30.40;91.20;;;;;;5053881;28;20189;-69
2022/06/23 14:02:56;;;;;;;0.70;0.35;;;30.40;88.60;;;;;;5053534;28;20638;-69
2022/06/23 14:05:45;;;;;;;0.40;0.38;;;30.30;88.50;;;;;;5035223;28;20263;-68
2022/06/23 14:08:16;;;;;;;1.52;0.55;;;29.80;88.80;;;;;;5054045;28;20287;-68
2022/06/23 14:10:47;;;;;;;0.20;0.20;;;29.30;89.10;;;;;;5053357;28;20197;-69
2022/06/23 14:13:43;;;;;;;0.17;0.17;;;28.40;90.90;;;;;;5053520;28;20192;-69
2022/06/23 14:16:44;;;;;;;0.50;0.50;;;28.00;91.50;;;;;;5053023;28;20645;-69